Avalon, California
Current Conditions -  °F | °C
As of 6:05 AM on Monday 20 Oct 2014 (Local Time) from KAVX Reporting Station
Haze Haze  
Wind Chill: 58°   Ceiling: 200
Heat Index: 58°   Visibility: 3mi
Dew Point: 57°   Wind: 6mph
Humidity: 97%   Direction: 260°W
Pressure: 29.93"   Gusts: NA
Location:  33.34°N, 118.33°W
Report Text: KAVX 201305Z AUTO 26005KT 3SM BR OVC002 14/14 A2993 RMK AO2 T01440139 $
Loading
Personal Weather Stations






























Interactive Weather Map New forecast layout! Learn more

10-Day Weather Forecast

Advertisements
Track Severe Weather on mobile